Time;durP1;ratioP1;P1;durP2;ratioP2;P2;SDS_P1;SDS_P2;PMS_P1;PMS_P2;Temp;Humidity;BMP_temperature;BMP_pressure;BME280_temperature;BME280_humidity;BME280_pressure;Samples;Min_cycle;Max_cycle;Signal;HPM_P1;HPM_P2
2023/05/15 00:01:17;;;;;;;0.00;0.00;;;11.70;99.90;;;;;;5093722;28;20180;-57
2023/05/15 00:03:43;;;;;;;0.00;0.00;;;11.70;99.90;;;;;;5093529;28;20237;-57
2023/05/15 00:06:08;;;;;;;0.00;0.00;;;11.70;99.90;;;;;;5093308;28;20576;-57
2023/05/15 00:08:34;;;;;;;0.00;0.00;;;11.70;99.90;;;;;;5093619;28;20230;-57
2023/05/15 00:10:59;;;;;;;0.00;0.00;;;11.70;99.90;;;;;;5093442;28;20184;-57
2023/05/15 00:13:25;;;;;;;0.00;0.00;;;11.70;99.90;;;;;;5093374;28;20610;-57
2023/05/15 00:15:51;;;;;;;0.00;0.00;;;11.70;99.90;;;;;;5093124;28;20176;-57
2023/05/15 00:18:16;;;;;;;0.00;0.00;;;11.60;99.90;;;;;;5092606;28;20263;-57
2023/05/15 00:20:42;;;;;;;0.10;0.10;;;11.50;99.90;;;;;;5092117;28;20639;-57
2023/05/15 00:23:08;;;;;;;0.00;0.00;;;11.50;99.90;;;;;;5092690;28;20224;-57
2023/05/15 00:25:34;;;;;;;0.00;0.00;;;11.50;99.90;;;;;;5092924;28;20219;-56
2023/05/15 00:27:59;;;;;;;0.00;0.00;;;11.50;99.90;;;;;;5093277;28;20176;-56
2023/05/15 00:30:25;;;;;;;0.00;0.00;;;11.50;99.90;;;;;;5092963;28;20191;-56
2023/05/15 00:32:50;;;;;;;0.00;0.00;;;11.30;99.90;;;;;;5092845;28;20291;-57
2023/05/15 00:35:16;;;;;;;0.00;0.00;;;11.40;99.90;;;;;;5092138;28;20168;-57
2023/05/15 00:37:42;;;;;;;0.00;0.00;;;11.40;99.90;;;;;;5093079;28;20176;-56
2023/05/15 00:40:09;;;;;;;0.00;0.00;;;11.30;99.90;;;;;;5093204;28;20176;-57
2023/05/15 00:42:35;;;;;;;0.00;0.00;;;11.30;99.90;;;;;;5092333;28;20369;-56
2023/05/15 00:45:02;;;;;;;0.30;0.30;;;11.20;99.90;;;;;;5093138;28;20753;-57
2023/05/15 00:47:28;;;;;;;0.00;0.00;;;11.20;99.90;;;;;;5093008;28;20541;-57
2023/05/15 00:49:55;;;;;;;0.10;0.10;;;11.20;99.90;;;;;;5091862;28;20646;-57
2023/05/15 00:52:21;;;;;;;0.00;0.00;;;11.20;99.90;;;;;;5072637;28;20185;-56
2023/05/15 00:54:47;;;;;;;0.00;0.00;;;11.20;99.90;;;;;;5088855;28;20686;-57
2023/05/15 00:57:13;;;;;;;0.10;0.10;;;11.20;99.90;;;;;;5092935;28;20180;-57
2023/05/15 00:59:39;;;;;;;0.00;0.00;;;11.20;99.90;;;;;;5092421;28;20191;-57
2023/05/15 01:02:05;;;;;;;0.00;0.00;;;11.20;99.90;;;;;;5091027;28;20214;-57
2023/05/15 01:04:30;;;;;;;0.10;0.10;;;11.20;99.90;;;;;;5091022;28;20184;-56
2023/05/15 01:06:56;;;;;;;0.03;0.03;;;11.20;99.90;;;;;;5092247;28;20685;-57
2023/05/15 01:09:28;;;;;;;0.00;0.00;;;11.20;99.90;;;;;;5092800;28;20200;-56
2023/05/15 01:11:56;;;;;;;0.00;0.00;;;11.20;99.90;;;;;;5092280;28;20271;-56
2023/05/15 01:14:21;;;;;;;0.00;0.00;;;11.20;99.90;;;;;;5092368;28;20164;-57
2023/05/15 01:16:47;;;;;;;0.00;0.00;;;11.20;99.90;;;;;;5092182;28;20183;-57
2023/05/15 01:19:13;;;;;;;0.00;0.00;;;11.20;99.90;;;;;;5091457;28;20160;-57
2023/05/15 01:22:29;;;;;;;0.10;0.10;;;11.20;99.90;;;;;;5091747;28;20265;-57
2023/05/15 01:25:16;;;;;;;0.00;0.00;;;11.20;99.90;;;;;;5091996;28;20216;-57
2023/05/15 01:27:57;;;;;;;0.00;0.00;;;11.20;99.90;;;;;;5091840;28;20176;-56
2023/05/15 01:30:28;;;;;;;0.98;0.35;;;11.20;99.90;;;;;;5091638;28;20195;-57
2023/05/15 01:33:23;;;;;;;0.00;0.00;;;11.20;99.90;;;;;;5090967;28;20281;-56
2023/05/15 01:36:00;;;;;;;0.00;0.00;;;11.20;99.90;;;;;;5083491;28;20177;-56
2023/05/15 01:38:38;;;;;;;0.00;0.00;;;11.10;99.90;;;;;;5091310;28;20184;-57
2023/05/15 01:41:12;;;;;;;0.00;0.00;;;11.20;99.90;;;;;;5080813;28;20189;-57
2023/05/15 01:43:41;;;;;;;0.00;0.00;;;11.20;99.90;;;;;;5091409;28;20215;-57
2023/05/15 01:46:07;;;;;;;0.00;0.00;;;11.20;99.90;;;;;;5091587;28;20215;-57
2023/05/15 01:48:35;;;;;;;0.00;0.00;;;11.20;99.90;;;;;;5091048;28;20208;-56
2023/05/15 01:51:04;;;;;;;0.10;0.10;;;11.20;99.90;;;;;;5090936;28;20564;-56
2023/05/15 01:53:32;;;;;;;0.00;0.00;;;11.30;99.90;;;;;;5091716;28;20175;-56
2023/05/15 01:55:59;;;;;;;0.00;0.00;;;11.30;99.90;;;;;;5090146;28;20180;-56
2023/05/15 01:58:25;;;;;;;0.00;0.00;;;11.30;99.90;;;;;;5091350;28;20506;-57
2023/05/15 02:00:52;;;;;;;0.10;0.10;;;11.30;99.90;;;;;;5091335;28;20238;-57
2023/05/15 02:03:18;;;;;;;0.00;0.00;;;11.30;99.90;;;;;;5090993;28;20222;-56
2023/05/15 02:05:46;;;;;;;0.00;0.00;;;11.40;99.90;;;;;;5090587;28;20190;-57
2023/05/15 02:08:12;;;;;;;0.10;0.10;;;11.40;99.90;;;;;;5071117;28;20180;-57
2023/05/15 02:10:38;;;;;;;0.00;0.00;;;11.40;99.90;;;;;;5081289;28;20552;-56
2023/05/15 02:13:07;;;;;;;0.00;0.00;;;11.40;99.90;;;;;;5091126;28;20274;-57
2023/05/15 02:15:34;;;;;;;0.00;0.00;;;11.40;99.90;;;;;;5070057;28;20181;-57
2023/05/15 02:18:00;;;;;;;0.00;0.00;;;11.40;99.90;;;;;;5081148;28;20180;-56
2023/05/15 02:20:26;;;;;;;0.00;0.00;;;11.40;99.90;;;;;;5090679;28;20312;-57
2023/05/15 02:22:51;;;;;;;0.00;0.00;;;11.40;99.90;;;;;;5090697;28;20216;-57
2023/05/15 02:25:17;;;;;;;0.00;0.00;;;11.40;99.90;;;;;;5090621;28;20686;-57
2023/05/15 02:27:59;;;;;;;0.00;0.00;;;11.30;99.90;;;;;;5089808;28;20294;-57
2023/05/15 02:30:41;;;;;;;0.00;0.00;;;11.30;99.90;;;;;;5071247;28;20188;-57
2023/05/15 02:33:34;;;;;;;0.00;0.00;;;11.30;99.90;;;;;;5084254;28;20183;-57
2023/05/15 02:36:14;;;;;;;0.10;0.10;;;11.40;99.90;;;;;;5082764;28;20176;-57
2023/05/15 02:38:49;;;;;;;0.00;0.00;;;11.40;99.90;;;;;;5074130;28;20225;-56
2023/05/15 02:41:16;;;;;;;0.00;0.00;;;11.40;99.90;;;;;;5091211;28;20214;-56
2023/05/15 02:43:42;;;;;;;0.00;0.00;;;11.40;99.90;;;;;;5089169;28;20208;-57
2023/05/15 02:46:09;;;;;;;0.00;0.00;;;11.30;99.90;;;;;;5090367;28;20194;-57
2023/05/15 02:48:38;;;;;;;0.00;0.00;;;11.30;99.90;;;;;;5087489;28;20279;-57
2023/05/15 02:51:05;;;;;;;0.00;0.00;;;11.30;99.90;;;;;;5088275;28;20180;-56
2023/05/15 02:53:32;;;;;;;0.03;0.03;;;11.20;99.90;;;;;;5090222;28;20176;-57
2023/05/15 02:55:58;;;;;;;0.00;0.00;;;11.20;99.90;;;;;;5089957;28;20180;-57
2023/05/15 02:58:23;;;;;;;0.00;0.00;;;11.20;99.90;;;;;;5089954;28;20183;-57
2023/05/15 03:00:49;;;;;;;0.00;0.00;;;11.20;99.90;;;;;;5089843;28;20533;-57
2023/05/15 03:03:14;;;;;;;0.00;0.00;;;11.20;99.90;;;;;;5090430;28;20219;-57
2023/05/15 03:05:40;;;;;;;0.00;0.00;;;11.20;99.90;;;;;;5093432;28;20192;-57
2023/05/15 03:08:06;;;;;;;0.00;0.00;;;11.20;99.90;;;;;;5094133;28;20168;-57
2023/05/15 03:10:31;;;;;;;0.00;0.00;;;11.20;99.90;;;;;;5094939;28;20179;-57
2023/05/15 03:12:57;;;;;;;0.00;0.00;;;11.30;99.90;;;;;;5094384;28;20225;-57
2023/05/15 03:15:22;;;;;;;0.00;0.00;;;11.30;99.90;;;;;;5094141;28;20179;-56
2023/05/15 03:17:48;;;;;;;0.00;0.00;;;11.30;99.90;;;;;;5094440;28;20180;-57
2023/05/15 03:20:14;;;;;;;0.00;0.00;;;11.30;99.90;;;;;;5093823;28;20168;-57
2023/05/15 03:22:40;;;;;;;0.00;0.00;;;11.30;99.90;;;;;;5094265;28;20212;-57
2023/05/15 03:25:07;;;;;;;0.22;0.10;;;11.30;99.90;;;;;;5073878;28;20315;-56
2023/05/15 03:27:32;;;;;;;0.00;0.00;;;11.30;99.90;;;;;;5092846;28;20263;-56
2023/05/15 03:29:58;;;;;;;0.00;0.00;;;11.30;99.90;;;;;;5093656;28;20255;-56
2023/05/15 03:32:23;;;;;;;0.00;0.00;;;11.30;99.90;;;;;;5094850;28;20245;-57
2023/05/15 03:34:49;;;;;;;0.10;0.10;;;11.20;99.90;;;;;;5092732;28;20188;-56
2023/05/15 03:37:14;;;;;;;0.00;0.00;;;11.20;99.90;;;;;;5093870;28;20202;-56
2023/05/15 03:39:40;;;;;;;0.00;0.00;;;11.20;99.90;;;;;;5094173;28;20207;-56
2023/05/15 03:42:06;;;;;;;0.00;0.00;;;11.20;99.90;;;;;;5094068;28;20686;-56
2023/05/15 03:44:32;;;;;;;0.10;0.10;;;11.20;99.90;;;;;;5091321;28;20180;-56
2023/05/15 03:46:57;;;;;;;0.00;0.00;;;11.20;99.90;;;;;;5079969;28;20262;-56
2023/05/15 03:49:23;;;;;;;0.00;0.00;;;11.20;99.90;;;;;;5092156;28;20216;-56
2023/05/15 03:51:48;;;;;;;0.00;0.00;;;11.20;99.90;;;;;;5093691;28;20272;-57
2023/05/15 03:54:14;;;;;;;0.00;0.00;;;11.20;99.90;;;;;;5093822;28;20184;-56
2023/05/15 03:56:39;;;;;;;0.00;0.00;;;11.20;99.90;;;;;;5093727;28;20267;-56
2023/05/15 03:59:05;;;;;;;0.00;0.00;;;11.20;99.90;;;;;;5092035;28;20180;-56
2023/05/15 04:01:31;;;;;;;0.00;0.00;;;11.20;99.90;;;;;;5092807;28;20176;-56
2023/05/15 04:03:56;;;;;;;0.30;0.13;;;11.20;99.90;;;;;;5092992;28;20188;-57
2023/05/15 04:06:22;;;;;;;0.00;0.00;;;11.20;99.90;;;;;;5093065;28;20172;-57
2023/05/15 04:08:48;;;;;;;0.00;0.00;;;11.30;99.90;;;;;;5093229;28;20176;-56
2023/05/15 04:11:14;;;;;;;0.00;0.00;;;11.40;99.90;;;;;;5091456;28;20672;-56
2023/05/15 04:13:40;;;;;;;0.00;0.00;;;11.90;99.90;;;;;;5092100;28;20176;-56
2023/05/15 04:16:06;;;;;;;0.00;0.00;;;12.30;99.90;;;;;;5091341;28;20207;-57
2023/05/15 04:18:32;;;;;;;0.03;0.03;;;12.40;99.90;;;;;;5093288;28;20218;-57
2023/05/15 04:20:57;;;;;;;0.00;0.00;;;12.50;99.90;;;;;;5092171;28;20168;-57
2023/05/15 04:23:23;;;;;;;0.00;0.00;;;12.40;99.90;;;;;;5092670;28;20546;-57
2023/05/15 04:25:48;;;;;;;0.00;0.00;;;12.30;99.90;;;;;;5092911;28;20235;-58
2023/05/15 04:28:14;;;;;;;0.00;0.00;;;12.30;99.90;;;;;;5092852;28;20192;-57
2023/05/15 04:30:40;;;;;;;0.00;0.00;;;12.30;99.90;;;;;;5092989;28;20647;-56
2023/05/15 04:33:06;;;;;;;0.00;0.00;;;12.30;99.90;;;;;;5092710;28;20187;-56
2023/05/15 04:35:31;;;;;;;0.00;0.00;;;12.30;99.90;;;;;;5093020;28;20259;-57
2023/05/15 04:37:57;;;;;;;0.00;0.00;;;12.40;99.90;;;;;;5092805;28;20538;-57
2023/05/15 04:40:23;;;;;;;0.00;0.00;;;12.40;99.90;;;;;;5092857;28;20179;-56
2023/05/15 04:42:48;;;;;;;0.00;0.00;;;12.60;99.90;;;;;;5092561;28;20208;-57
2023/05/15 04:45:14;;;;;;;0.00;0.00;;;12.70;99.90;;;;;;5092402;28;20662;-57
2023/05/15 04:47:39;;;;;;;0.00;0.00;;;12.90;99.90;;;;;;5092829;28;20191;-57
2023/05/15 04:50:05;;;;;;;0.00;0.00;;;13.20;99.90;;;;;;5091575;28;20188;-57
2023/05/15 04:52:31;;;;;;;0.00;0.00;;;13.50;99.90;;;;;;5092760;28;20183;-57
2023/05/15 04:54:57;;;;;;;0.00;0.00;;;13.80;99.90;;;;;;5092534;28;20176;-57
2023/05/15 04:57:23;;;;;;;0.00;0.00;;;14.10;99.90;;;;;;5092614;28;20176;-57
2023/05/15 04:59:49;;;;;;;0.00;0.00;;;14.30;99.90;;;;;;5092597;28;20208;-57
2023/05/15 05:02:14;;;;;;;0.00;0.00;;;14.40;99.90;;;;;;5092426;28;20266;-56
2023/05/15 05:04:43;;;;;;;0.00;0.00;;;14.50;99.90;;;;;;5072465;28;20180;-56
2023/05/15 05:07:08;;;;;;;0.00;0.00;;;14.70;99.90;;;;;;5088556;28;20199;-57
2023/05/15 05:09:34;;;;;;;0.10;0.10;;;14.90;99.90;;;;;;5092476;28;20176;-56
2023/05/15 05:12:00;;;;;;;0.00;0.00;;;15.00;99.90;;;;;;5092800;28;20172;-57
2023/05/15 05:14:26;;;;;;;0.00;0.00;;;14.80;99.90;;;;;;5092607;28;20183;-57
2023/05/15 05:16:52;;;;;;;0.00;0.00;;;14.90;99.90;;;;;;5092475;28;20176;-57
2023/05/15 05:19:17;;;;;;;0.00;0.00;;;15.00;99.90;;;;;;5092528;28;20640;-57
2023/05/15 05:21:43;;;;;;;0.00;0.00;;;15.10;99.90;;;;;;5092292;28;20184;-57
2023/05/15 05:24:08;;;;;;;0.00;0.00;;;15.20;99.90;;;;;;5091825;28;20232;-57
2023/05/15 05:26:34;;;;;;;0.00;0.00;;;15.40;99.90;;;;;;5091748;28;20168;-56
2023/05/15 05:28:59;;;;;;;0.00;0.00;;;15.60;99.90;;;;;;5091756;28;20681;-57
2023/05/15 05:31:25;;;;;;;0.00;0.00;;;15.30;99.90;;;;;;5092174;28;20663;-57
2023/05/15 05:33:51;;;;;;;0.00;0.00;;;15.10;99.90;;;;;;5091963;28;20176;-57
2023/05/15 05:36:17;;;;;;;0.00;0.00;;;14.70;99.90;;;;;;5091863;28;20176;-57
2023/05/15 05:38:43;;;;;;;1.10;0.75;;;14.30;99.90;;;;;;5091875;28;20180;-57
2023/05/15 05:41:08;;;;;;;0.00;0.00;;;14.00;99.90;;;;;;5091782;28;20168;-57
2023/05/15 05:43:34;;;;;;;0.00;0.00;;;13.70;99.90;;;;;;5091655;28;20214;-57
2023/05/15 05:46:00;;;;;;;0.00;0.00;;;13.60;99.90;;;;;;5091530;28;20188;-57
2023/05/15 05:48:25;;;;;;;0.35;0.25;;;13.50;99.90;;;;;;5091881;28;20261;-57
2023/05/15 05:50:51;;;;;;;0.00;0.00;;;13.50;99.90;;;;;;5091706;28;20196;-57
2023/05/15 05:53:17;;;;;;;0.00;0.00;;;13.70;99.90;;;;;;5091653;28;20168;-57
2023/05/15 05:55:42;;;;;;;0.00;0.00;;;14.30;99.90;;;;;;5083026;28;20676;-57
2023/05/15 05:58:08;;;;;;;0.00;0.00;;;15.10;99.90;;;;;;5075149;28;20180;-57
2023/05/15 06:00:33;;;;;;;0.00;0.00;;;15.90;99.90;;;;;;5091309;28;20176;-56
2023/05/15 06:02:59;;;;;;;0.30;0.30;;;16.90;99.90;;;;;;5082658;28;20217;-57
2023/05/15 06:05:26;;;;;;;0.00;0.00;;;17.50;99.90;;;;;;5071674;28;20274;-56
2023/05/15 06:07:52;;;;;;;0.00;0.00;;;17.90;99.90;;;;;;5077767;28;20191;-57
2023/05/15 06:10:19;;;;;;;0.00;0.00;;;18.50;99.90;;;;;;5071181;28;20605;-57
2023/05/15 06:12:45;;;;;;;0.00;0.00;;;18.80;99.90;;;;;;5071238;28;20173;-57
2023/05/15 06:15:11;;;;;;;0.00;0.00;;;19.40;99.90;;;;;;5070777;28;20250;-57
2023/05/15 06:17:37;;;;;;;0.00;0.00;;;19.90;99.90;;;;;;5071183;28;20612;-57
2023/05/15 06:20:08;;;;;;;0.00;0.00;;;20.50;99.90;;;;;;5070915;28;20252;-57
2023/05/15 06:22:35;;;;;;;0.00;0.00;;;21.00;99.10;;;;;;5070782;28;20308;-56
2023/05/15 06:25:01;;;;;;;0.00;0.00;;;20.80;98.70;;;;;;5070582;28;20281;-57
2023/05/15 06:27:28;;;;;;;0.00;0.00;;;21.00;98.40;;;;;;5070910;28;20701;-56
2023/05/15 06:29:53;;;;;;;0.00;0.00;;;21.60;98.10;;;;;;5070703;28;20169;-57
2023/05/15 06:32:19;;;;;;;0.00;0.00;;;22.20;96.80;;;;;;5070910;28;20252;-57
2023/05/15 06:34:44;;;;;;;0.00;0.00;;;21.90;95.20;;;;;;5070705;28;20181;-57
2023/05/15 06:37:10;;;;;;;0.00;0.00;;;21.60;94.80;;;;;;5070648;28;20169;-57
2023/05/15 06:39:36;;;;;;;0.00;0.00;;;21.50;95.90;;;;;;5079981;28;20273;-57
2023/05/15 06:42:02;;;;;;;0.00;0.00;;;22.00;95.20;;;;;;5089582;28;20215;-57
2023/05/15 06:44:29;;;;;;;0.00;0.00;;;22.20;93.70;;;;;;5091334;28;20214;-56
2023/05/15 06:46:55;;;;;;;0.00;0.00;;;21.90;93.80;;;;;;5091514;28;20263;-57
2023/05/15 06:49:20;;;;;;;0.00;0.00;;;21.80;93.80;;;;;;5091515;28;20271;-56
2023/05/15 06:51:46;;;;;;;0.13;0.13;;;21.70;93.90;;;;;;5091420;28;20260;-56
2023/05/15 06:54:11;;;;;;;0.00;0.00;;;21.70;94.60;;;;;;5091143;28;20215;-57
2023/05/15 06:56:37;;;;;;;0.00;0.00;;;22.10;94.30;;;;;;5091381;28;20226;-57
2023/05/15 06:59:02;;;;;;;0.00;0.00;;;22.60;93.30;;;;;;5091154;28;20221;-57
2023/05/15 07:01:30;;;;;;;0.00;0.00;;;22.40;92.40;;;;;;5091079;28;20180;-56
2023/05/15 07:03:55;;;;;;;0.00;0.00;;;22.30;92.80;;;;;;5091142;28;20172;-57
2023/05/15 07:06:21;;;;;;;0.00;0.00;;;22.00;92.30;;;;;;5088840;28;20180;-57
2023/05/15 07:08:46;;;;;;;0.00;0.00;;;21.50;92.10;;;;;;5070878;28;20173;-57
2023/05/15 07:11:12;;;;;;;0.17;0.17;;;20.80;93.00;;;;;;5070653;28;20173;-57
2023/05/15 07:13:37;;;;;;;0.00;0.00;;;20.30;94.20;;;;;;5070865;28;20259;-56
2023/05/15 07:16:03;;;;;;;0.00;0.00;;;19.80;94.80;;;;;;5070702;28;20550;-56
2023/05/15 07:18:29;;;;;;;0.00;0.00;;;19.80;95.30;;;;;;5070915;28;20173;-57
2023/05/15 07:20:54;;;;;;;0.00;0.00;;;20.10;95.00;;;;;;5070770;28;20176;-57
2023/05/15 07:23:20;;;;;;;0.00;0.00;;;20.50;95.20;;;;;;5070564;28;20221;-57
2023/05/15 07:25:45;;;;;;;0.00;0.00;;;21.10;94.50;;;;;;5070466;28;20220;-57
2023/05/15 07:28:11;;;;;;;0.00;0.00;;;22.00;93.50;;;;;;5070452;28;20173;-57
2023/05/15 07:30:36;;;;;;;0.00;0.00;;;22.50;92.60;;;;;;5070674;28;20181;-57
2023/05/15 07:33:02;;;;;;;0.00;0.00;;;22.60;90.70;;;;;;5070578;28;20173;-57
2023/05/15 07:35:29;;;;;;;0.00;0.00;;;22.80;90.50;;;;;;5070646;28;20200;-57
2023/05/15 07:37:54;;;;;;;0.00;0.00;;;23.00;89.00;;;;;;5070515;28;20670;-57
2023/05/15 07:40:20;;;;;;;0.00;0.00;;;23.50;89.60;;;;;;5087896;28;20225;-57
2023/05/15 07:42:45;;;;;;;0.00;0.00;;;24.40;87.20;;;;;;5090640;28;20258;-56
2023/05/15 07:45:11;;;;;;;0.00;0.00;;;25.10;84.50;;;;;;5090522;28;20264;-57
2023/05/15 07:47:37;;;;;;;0.00;0.00;;;24.60;83.10;;;;;;5090782;28;20532;-57
2023/05/15 07:50:02;;;;;;;0.00;0.00;;;25.10;83.80;;;;;;5090960;28;20255;-57
2023/05/15 07:52:28;;;;;;;0.10;0.10;;;25.70;80.20;;;;;;5094504;28;20251;-56
2023/05/15 07:54:53;;;;;;;0.00;0.00;;;26.30;80.30;;;;;;5094220;28;20181;-57
2023/05/15 07:57:19;;;;;;;0.00;0.00;;;26.80;77.30;;;;;;5094448;28;20168;-57
2023/05/15 07:59:45;;;;;;;0.00;0.00;;;27.40;76.30;;;;;;5094387;28;20203;-56
2023/05/15 08:02:10;;;;;;;0.00;0.00;;;27.20;72.20;;;;;;5094199;28;20208;-57
2023/05/15 08:04:36;;;;;;;0.00;0.00;;;26.40;71.90;;;;;;5094534;28;20260;-57
2023/05/15 08:07:01;;;;;;;0.00;0.00;;;25.70;73.20;;;;;;5087716;28;20580;-57
2023/05/15 08:09:27;;;;;;;0.00;0.00;;;24.10;75.00;;;;;;5074158;28;20241;-57
2023/05/15 08:11:55;;;;;;;0.10;0.10;;;23.00;78.50;;;;;;5073821;28;20183;-57
2023/05/15 08:14:21;;;;;;;0.00;0.00;;;22.40;81.50;;;;;;5074025;28;20598;-56
2023/05/15 08:16:48;;;;;;;0.00;0.00;;;22.10;83.20;;;;;;5073878;28;20173;-56
2023/05/15 08:19:14;;;;;;;0.00;0.00;;;22.30;85.50;;;;;;5073644;28;20177;-56
2023/05/15 08:21:40;;;;;;;0.00;0.00;;;23.00;86.30;;;;;;5073795;28;20181;-57
2023/05/15 08:24:05;;;;;;;0.00;0.00;;;23.40;84.10;;;;;;5073367;28;20232;-57
2023/05/15 08:26:31;;;;;;;0.00;0.00;;;23.50;81.80;;;;;;5073645;28;20274;-57
2023/05/15 08:28:57;;;;;;;0.00;0.00;;;23.20;79.50;;;;;;5073710;28;20314;-57
2023/05/15 08:31:22;;;;;;;0.00;0.00;;;22.80;81.40;;;;;;5089364;28;20636;-57
2023/05/15 08:33:48;;;;;;;0.00;0.00;;;22.90;83.40;;;;;;5073729;28;20178;-58
2023/05/15 08:36:14;;;;;;;0.00;0.00;;;22.70;82.40;;;;;;5073472;28;20185;-57
2023/05/15 08:38:39;;;;;;;0.00;0.00;;;22.40;83.70;;;;;;5077023;28;20182;-57
2023/05/15 08:41:16;;;;;;;0.00;0.00;;;22.20;84.70;;;;;;5093631;28;20180;-57
2023/05/15 08:43:43;;;;;;;0.00;0.00;;;22.10;84.90;;;;;;5093759;28;20215;-57
2023/05/15 08:46:09;;;;;;;0.00;0.00;;;21.90;85.50;;;;;;5093525;28;20180;-57
2023/05/15 08:48:38;;;;;;;0.00;0.00;;;21.80;86.70;;;;;;5093699;28;20187;-57
2023/05/15 08:51:07;;;;;;;0.05;0.05;;;22.00;86.80;;;;;;5093507;28;20187;-57
2023/05/15 08:53:33;;;;;;;0.00;0.00;;;22.00;87.50;;;;;;5093384;28;20724;-56
2023/05/15 08:55:58;;;;;;;0.00;0.00;;;22.00;86.10;;;;;;5093358;28;20180;-56
2023/05/15 08:58:26;;;;;;;0.00;0.00;;;22.20;87.10;;;;;;5093266;28;20659;-57
2023/05/15 09:00:51;;;;;;;0.00;0.00;;;22.40;83.30;;;;;;5093135;28;20208;-57
2023/05/15 09:03:18;;;;;;;0.00;0.00;;;22.40;82.20;;;;;;5092221;28;20320;-56
2023/05/15 09:05:46;;;;;;;0.00;0.00;;;22.60;81.40;;;;;;5092754;28;20176;-56
2023/05/15 09:08:14;;;;;;;0.00;0.00;;;22.80;81.50;;;;;;5093131;28;20183;-57
2023/05/15 09:10:41;;;;;;;0.00;0.00;;;22.80;82.90;;;;;;5092943;28;20218;-56
2023/05/15 09:13:08;;;;;;;0.00;0.00;;;22.90;82.30;;;;;;5092820;28;20267;-57
2023/05/15 09:15:33;;;;;;;0.00;0.00;;;22.80;81.90;;;;;;5092991;28;20180;-56
2023/05/15 09:18:00;;;;;;;0.15;0.13;;;22.80;82.20;;;;;;5092730;28;20229;-57
2023/05/15 09:20:32;;;;;;;0.00;0.00;;;23.20;81.10;;;;;;5092972;28;20168;-57
2023/05/15 09:23:00;;;;;;;0.00;0.00;;;23.20;80.60;;;;;;5092701;28;20208;-57
2023/05/15 09:25:40;;;;;;;0.10;0.10;;;23.40;80.70;;;;;;5092683;28;20277;-57
2023/05/15 09:28:07;;;;;;;0.00;0.00;;;23.80;81.70;;;;;;5092659;28;20176;-57
2023/05/15 09:30:36;;;;;;;0.00;0.00;;;24.20;81.60;;;;;;5092693;28;20229;-56
2023/05/15 09:33:02;;;;;;;0.00;0.00;;;24.80;77.60;;;;;;5092530;28;20176;-57
2023/05/15 09:35:37;;;;;;;0.00;0.00;;;25.30;74.70;;;;;;5092676;28;20180;-57
2023/05/15 09:38:07;;;;;;;0.00;0.00;;;25.60;74.30;;;;;;5092537;28;20179;-56
2023/05/15 09:40:33;;;;;;;0.00;0.00;;;25.80;74.10;;;;;;5092308;28;20180;-57
2023/05/15 09:42:58;;;;;;;0.00;0.00;;;25.70;72.80;;;;;;5092140;28;20261;-57
2023/05/15 09:45:25;;;;;;;0.00;0.00;;;25.80;70.90;;;;;;5092495;28;20528;-57
2023/05/15 09:47:52;;;;;;;0.00;0.00;;;26.10;70.00;;;;;;5092356;28;20252;-56
2023/05/15 09:50:32;;;;;;;0.00;0.00;;;25.90;71.20;;;;;;5092483;28;20188;-57
2023/05/15 09:52:58;;;;;;;0.00;0.00;;;25.90;70.60;;;;;;5092334;28;20714;-57
2023/05/15 09:55:24;;;;;;;0.00;0.00;;;26.00;70.90;;;;;;5092165;28;20626;-57
2023/05/15 09:58:06;;;;;;;0.00;0.00;;;26.10;68.60;;;;;;5092191;28;20180;-57
2023/05/15 10:00:33;;;;;;;0.00;0.00;;;26.10;69.50;;;;;;5092121;28;20226;-57
2023/05/15 10:03:01;;;;;;;0.00;0.00;;;26.30;68.90;;;;;;5091955;28;20220;-56
2023/05/15 10:05:27;;;;;;;0.00;0.00;;;26.50;68.50;;;;;;5091957;28;20645;-57
2023/05/15 10:07:56;;;;;;;0.00;0.00;;;26.50;67.10;;;;;;5090541;28;20206;-57
2023/05/15 10:10:22;;;;;;;0.13;0.13;;;26.60;64.90;;;;;;5092070;28;20180;-57
2023/05/15 10:12:52;;;;;;;0.00;0.00;;;26.30;69.30;;;;;;5091900;28;20215;-56
2023/05/15 10:15:20;;;;;;;0.00;0.00;;;26.20;67.10;;;;;;5091949;28;20179;-57
2023/05/15 10:17:50;;;;;;;0.00;0.00;;;25.90;65.50;;;;;;5091693;28;20187;-56
2023/05/15 10:20:18;;;;;;;0.00;0.00;;;25.70;67.10;;;;;;5091576;28;20176;-57
2023/05/15 10:22:51;;;;;;;0.00;0.00;;;25.50;67.20;;;;;;5091659;28;20208;-57
2023/05/15 10:25:22;;;;;;;0.00;0.00;;;25.80;67.50;;;;;;5091510;28;20224;-57
2023/05/15 10:27:50;;;;;;;0.00;0.00;;;26.00;65.20;;;;;;5091737;28;20225;-56
2023/05/15 10:30:16;;;;;;;0.00;0.00;;;26.20;65.90;;;;;;5091458;28;20172;-57
2023/05/15 10:32:43;;;;;;;0.00;0.00;;;26.30;65.50;;;;;;5091678;28;20255;-57
2023/05/15 10:35:10;;;;;;;0.00;0.00;;;26.60;65.00;;;;;;5091390;28;20176;-57
2023/05/15 10:37:37;;;;;;;0.10;0.05;;;27.00;63.90;;;;;;5091584;28;20176;-57
2023/05/15 10:40:07;;;;;;;0.00;0.00;;;27.20;63.90;;;;;;5091404;28;20179;-56
2023/05/15 10:42:34;;;;;;;0.00;0.00;;;27.30;63.30;;;;;;5091309;28;20306;-57
2023/05/15 10:45:01;;;;;;;0.00;0.00;;;27.40;63.60;;;;;;5091315;28;20172;-56
2023/05/15 10:47:32;;;;;;;0.00;0.00;;;27.50;58.30;;;;;;5091535;28;20180;-56
2023/05/15 10:49:58;;;;;;;0.00;0.00;;;27.20;58.20;;;;;;5091137;28;20662;-57
2023/05/15 10:52:24;;;;;;;0.00;0.00;;;27.20;58.00;;;;;;5091372;28;20184;-57
2023/05/15 10:54:52;;;;;;;0.00;0.00;;;27.20;58.90;;;;;;5089917;28;20609;-57
2023/05/15 10:57:19;;;;;;;0.10;0.10;;;27.00;60.10;;;;;;5091296;28;20186;-56
2023/05/15 10:59:45;;;;;;;0.00;0.00;;;26.50;61.20;;;;;;5091307;28;20259;-57
2023/05/15 11:02:28;;;;;;;0.00;0.00;;;26.60;61.30;;;;;;5091037;28;20307;-57
2023/05/15 11:04:59;;;;;;;0.00;0.00;;;27.00;63.40;;;;;;5091328;28;20223;-56
2023/05/15 11:07:26;;;;;;;0.00;0.00;;;26.80;62.50;;;;;;5090087;28;20196;-56
2023/05/15 11:09:52;;;;;;;0.00;0.00;;;26.30;60.10;;;;;;5091052;28;20639;-57
2023/05/15 11:12:18;;;;;;;0.00;0.00;;;26.30;60.30;;;;;;5075252;28;20188;-57
2023/05/15 11:14:55;;;;;;;0.00;0.00;;;26.50;60.70;;;;;;5071070;28;20208;-56
2023/05/15 11:17:25;;;;;;;0.00;0.00;;;26.40;59.00;;;;;;5089188;28;20190;-57
2023/05/15 11:19:50;;;;;;;0.00;0.00;;;26.00;58.10;;;;;;5090770;28;20210;-57
2023/05/15 11:22:21;;;;;;;0.00;0.00;;;25.90;56.90;;;;;;5090973;28;20212;-57
2023/05/15 11:24:49;;;;;;;0.00;0.00;;;26.10;56.10;;;;;;5090901;28;20232;-57
2023/05/15 11:27:28;;;;;;;0.00;0.00;;;26.10;56.40;;;;;;5095274;28;20172;-56
2023/05/15 11:30:14;;;;;;;0.00;0.00;;;26.10;54.60;;;;;;5093640;28;20595;-57
2023/05/15 11:32:45;;;;;;;0.00;0.00;;;26.10;55.10;;;;;;5095223;28;20585;-57
2023/05/15 11:35:22;;;;;;;0.00;0.00;;;26.30;55.80;;;;;;5094555;28;20168;-57
2023/05/15 11:37:47;;;;;;;0.00;0.00;;;26.50;54.30;;;;;;5094895;28;20585;-57
2023/05/15 11:40:18;;;;;;;0.00;0.00;;;26.70;55.00;;;;;;5094460;28;20200;-57
2023/05/15 11:43:00;;;;;;;0.00;0.00;;;27.00;53.90;;;;;;5094825;28;20345;-57
2023/05/15 11:45:29;;;;;;;0.00;0.00;;;27.10;52.80;;;;;;5094990;28;20175;-55
2023/05/15 11:47:54;;;;;;;0.00;0.00;;;27.30;53.40;;;;;;5094807;28;20219;-55
2023/05/15 11:50:20;;;;;;;0.00;0.00;;;26.90;52.20;;;;;;5094613;28;20203;-55
2023/05/15 11:52:48;;;;;;;0.00;0.00;;;26.30;53.20;;;;;;5094622;28;20181;-54
2023/05/15 11:55:16;;;;;;;0.00;0.00;;;25.80;53.90;;;;;;5094248;28;20172;-55
2023/05/15 11:57:42;;;;;;;0.00;0.00;;;26.00;55.80;;;;;;5094488;28;20317;-55
2023/05/15 12:00:08;;;;;;;0.00;0.00;;;25.90;54.00;;;;;;5093219;28;20263;-55
2023/05/15 12:02:34;;;;;;;0.00;0.00;;;25.70;54.00;;;;;;5094124;28;20216;-55
2023/05/15 12:04:59;;;;;;;0.00;0.00;;;25.60;56.30;;;;;;5094091;28;20515;-55
2023/05/15 12:07:25;;;;;;;0.08;0.08;;;25.50;56.50;;;;;;5094204;28;20174;-55
2023/05/15 12:09:51;;;;;;;0.00;0.00;;;25.60;55.80;;;;;;5094196;28;20168;-55
2023/05/15 12:12:17;;;;;;;0.00;0.00;;;25.90;55.10;;;;;;5094264;28;20220;-55
2023/05/15 12:14:42;;;;;;;0.00;0.00;;;26.00;55.30;;;;;;5094207;28;20211;-55
2023/05/15 12:17:08;;;;;;;0.00;0.00;;;26.30;55.20;;;;;;5093952;28;20192;-56
2023/05/15 12:19:34;;;;;;;0.00;0.00;;;26.50;55.40;;;;;;5093825;28;20180;-56
2023/05/15 12:22:00;;;;;;;0.00;0.00;;;26.60;53.80;;;;;;5093915;28;20175;-55
2023/05/15 12:24:26;;;;;;;0.00;0.00;;;26.20;52.70;;;;;;5093881;28;20618;-55
2023/05/15 12:26:51;;;;;;;0.00;0.00;;;25.80;53.30;;;;;;5093823;28;20176;-56
2023/05/15 12:29:17;;;;;;;0.00;0.00;;;25.50;53.70;;;;;;5093964;28;20184;-56
2023/05/15 12:31:43;;;;;;;0.47;0.30;;;25.10;54.90;;;;;;5093949;28;20666;-56
2023/05/15 12:34:09;;;;;;;0.00;0.00;;;24.60;57.00;;;;;;5093714;28;20537;-55
2023/05/15 12:36:35;;;;;;;0.00;0.00;;;24.30;58.20;;;;;;5092704;28;20198;-55
2023/05/15 12:39:06;;;;;;;0.00;0.00;;;24.00;58.60;;;;;;5093226;28;20180;-56
2023/05/15 12:41:32;;;;;;;0.00;0.00;;;23.80;58.80;;;;;;5093598;28;20215;-56
2023/05/15 12:43:58;;;;;;;0.00;0.00;;;23.60;59.90;;;;;;5093342;28;20243;-56
2023/05/15 12:46:32;;;;;;;0.00;0.00;;;23.40;60.90;;;;;;5093552;28;20172;-55
2023/05/15 12:48:58;;;;;;;0.00;0.00;;;23.30;61.30;;;;;;5093471;28;20240;-56